Time;durP1;ratioP1;P1;durP2;ratioP2;P2;SDS_P1;SDS_P2;PMS_P1;PMS_P2;Temp;Humidity;BMP_temperature;BMP_pressure;BME280_temperature;BME280_humidity;BME280_pressure;Samples;Min_cycle;Max_cycle;Signal;HPM_P1;HPM_P2
2023/03/17 00:01:18;;;;;;;612.60;56.80;;;;;;;-128.00;-1.00;-1.00;133904;1274;1002188;-82
2023/03/17 00:04:23;;;;;;;82.70;21.80;;;;;;;-128.00;-1.00;-1.00;133944;1274;1002257;-82
2023/03/17 00:07:26;;;;;;;47.00;18.10;;;;;;;-128.00;-1.00;-1.00;133932;1275;1001736;-82
2023/03/17 00:10:33;;;;;;;;;;;;;;;-128.00;-1.00;-1.00;133944;1274;1002499;-82
2023/03/17 00:13:36;;;;;;;44.60;17.30;;;;;;;-128.00;-1.00;-1.00;133924;1274;1002402;-83
2023/03/17 00:16:42;;;;;;;39.80;16.40;;;;;;;-128.00;-1.00;-1.00;133900;1274;1002403;-83
2023/03/17 00:19:45;;;;;;;44.40;16.60;;;;;;;-128.00;-1.00;-1.00;133950;1274;1002693;-83
2023/03/17 00:22:47;;;;;;;39.80;17.20;;;;;;;-128.00;-1.00;-1.00;133947;1274;1002264;-83
2023/03/17 00:25:52;;;;;;;43.70;17.80;;;;;;;-128.00;-1.00;-1.00;133940;1259;1001903;-83
2023/03/17 00:28:54;;;;;;;40.60;16.90;;;;;;;-128.00;-1.00;-1.00;133934;1274;1002393;-82
2023/03/17 00:31:57;;;;;;;46.60;18.10;;;;;;;-128.00;-1.00;-1.00;133936;1275;1001887;-82
2023/03/17 00:34:59;;;;;;;92.60;22.00;;;;;;;-128.00;-1.00;-1.00;133919;1274;1001725;-84
2023/03/17 00:38:01;;;;;;;51.80;19.90;;;;;;;-128.00;-1.00;-1.00;133897;1274;1002888;-83
2023/03/17 00:41:04;;;;;;;39.60;16.90;;;;;;;-128.00;-1.00;-1.00;133908;1274;1002624;-83
2023/03/17 00:44:07;;;;;;;42.60;17.90;;;;;;;-128.00;-1.00;-1.00;133952;1274;1001641;-83
2023/03/17 00:47:09;;;;;;;35.80;16.10;;;;;;;-128.00;-1.00;-1.00;133910;1274;1002157;-82
2023/03/17 00:50:14;;;;;;;42.40;18.50;;;;;;;-128.00;-1.00;-1.00;133885;1274;1002295;-82
2023/03/17 00:53:20;;;;;;;48.50;16.30;;;;;;;-128.00;-1.00;-1.00;133936;1274;1002032;-82
2023/03/17 00:56:23;;;;;;;36.60;17.40;;;;;;;-128.00;-1.00;-1.00;133933;1274;1002236;-82
2023/03/17 00:59:25;;;;;;;36.50;16.50;;;;;;;-128.00;-1.00;-1.00;133938;1274;1002411;-82
2023/03/17 01:02:28;;;;;;;36.00;16.80;;;;;;;-128.00;-1.00;-1.00;133929;1274;1002213;-82
2023/03/17 01:05:32;;;;;;;40.30;17.30;;;;;;;-128.00;-1.00;-1.00;133892;1274;1002296;-83
2023/03/17 01:08:35;;;;;;;120.60;21.00;;;;;;;-128.00;-1.00;-1.00;133892;1274;1002336;-83
2023/03/17 01:11:37;;;;;;;321.80;35.40;;;;;;;-128.00;-1.00;-1.00;133928;1274;1002388;-83
2023/03/17 01:14:40;;;;;;;78.60;18.90;;;;;;;-128.00;-1.00;-1.00;133913;1274;1002074;-82
2023/03/17 01:17:43;;;;;;;44.10;17.10;;;;;;;-128.00;-1.00;-1.00;133925;1275;1002355;-83
2023/03/17 01:20:46;;;;;;;40.90;18.10;;;;;;;-128.00;-1.00;-1.00;133923;1274;1002045;-82
2023/03/17 01:23:48;;;;;;;41.10;17.40;;;;;;;-128.00;-1.00;-1.00;133934;1274;1002116;-82
2023/03/17 01:26:50;;;;;;;40.20;17.80;;;;;;;-128.00;-1.00;-1.00;133928;1274;1002351;-82
2023/03/17 01:29:53;;;;;;;47.40;17.70;;;;;;;-128.00;-1.00;-1.00;133912;1274;1002272;-82
2023/03/17 01:32:55;;;;;;;43.50;17.90;;;;;;;-128.00;-1.00;-1.00;133940;1275;1002422;-82
2023/03/17 01:35:58;;;;;;;42.30;17.00;;;;;;;-128.00;-1.00;-1.00;133940;1274;1001941;-82
2023/03/17 01:39:00;;;;;;;46.60;19.40;;;;;;;-128.00;-1.00;-1.00;133909;1274;1002547;-82
2023/03/17 01:42:03;;;;;;;40.50;17.70;;;;;;;-128.00;-1.00;-1.00;133880;1274;1002132;-82
2023/03/17 01:45:06;;;;;;;50.70;20.30;;;;;;;-128.00;-1.00;-1.00;133902;1274;1002580;-83
2023/03/17 01:48:08;;;;;;;44.90;17.90;;;;;;;-128.00;-1.00;-1.00;133887;1274;1002472;-82
2023/03/17 01:51:11;;;;;;;42.20;18.90;;;;;;;-128.00;-1.00;-1.00;133918;1275;1002624;-82
2023/03/17 01:54:13;;;;;;;48.90;18.80;;;;;;;-128.00;-1.00;-1.00;133943;1275;1002001;-82
2023/03/17 01:57:15;;;;;;;44.20;18.60;;;;;;;-128.00;-1.00;-1.00;133904;1274;1002085;-82
2023/03/17 02:00:18;;;;;;;47.40;19.80;;;;;;;-128.00;-1.00;-1.00;133919;1274;1002609;-82
2023/03/17 02:03:21;;;;;;;287.90;36.20;;;;;;;-128.00;-1.00;-1.00;133943;1275;1002106;-83
2023/03/17 02:06:23;;;;;;;95.60;22.90;;;;;;;-128.00;-1.00;-1.00;133950;1274;1002037;-84
2023/03/17 02:09:26;;;;;;;55.90;21.30;;;;;;;-128.00;-1.00;-1.00;133882;1274;1002726;-83
2023/03/17 02:12:29;;;;;;;48.10;19.90;;;;;;;-128.00;-1.00;-1.00;133955;1274;1002490;-82
2023/03/17 02:15:31;;;;;;;49.70;20.70;;;;;;;-128.00;-1.00;-1.00;133939;1274;1001935;-82
2023/03/17 02:18:34;;;;;;;51.90;21.80;;;;;;;-128.00;-1.00;-1.00;133932;1274;1002823;-82
2023/03/17 02:21:37;;;;;;;42.20;19.20;;;;;;;-128.00;-1.00;-1.00;133894;1274;1002101;-83
2023/03/17 02:24:39;;;;;;;53.40;21.30;;;;;;;-128.00;-1.00;-1.00;133946;1274;1002069;-83
2023/03/17 02:27:41;;;;;;;51.90;21.00;;;;;;;-128.00;-1.00;-1.00;133905;1274;1002530;-84
2023/03/17 02:30:44;;;;;;;64.10;20.80;;;;;;;-128.00;-1.00;-1.00;133949;1274;1002411;-81
2023/03/17 02:33:46;;;;;;;79.60;22.80;;;;;;;-128.00;-1.00;-1.00;133919;1275;1002317;-80
2023/03/17 02:36:49;;;;;;;49.20;21.50;;;;;;;-128.00;-1.00;-1.00;133917;1274;1002144;-79
2023/03/17 02:39:52;;;;;;;56.20;21.60;;;;;;;-128.00;-1.00;-1.00;133912;1274;1002458;-79
2023/03/17 02:42:55;;;;;;;52.10;20.10;;;;;;;-128.00;-1.00;-1.00;133914;1274;1002677;-78
2023/03/17 02:45:57;;;;;;;43.30;20.20;;;;;;;-128.00;-1.00;-1.00;133926;1274;1002420;-78
2023/03/17 02:49:00;;;;;;;45.90;20.70;;;;;;;-128.00;-1.00;-1.00;133934;1274;1002607;-79
2023/03/17 02:52:03;;;;;;;51.50;21.80;;;;;;;-128.00;-1.00;-1.00;133927;1275;1002183;-79
2023/03/17 02:55:07;;;;;;;46.90;20.70;;;;;;;-128.00;-1.00;-1.00;133902;1274;1002068;-80
2023/03/17 02:58:09;;;;;;;63.40;22.70;;;;;;;-128.00;-1.00;-1.00;133967;1274;1002672;-79
2023/03/17 03:01:11;;;;;;;84.50;22.40;;;;;;;-128.00;-1.00;-1.00;133911;1275;1002477;-79
2023/03/17 03:04:14;;;;;;;53.20;21.60;;;;;;;-128.00;-1.00;-1.00;133913;1275;1002907;-79
2023/03/17 03:07:16;;;;;;;52.70;21.60;;;;;;;-128.00;-1.00;-1.00;133893;1275;1002084;-79
2023/03/17 03:10:20;;;;;;;54.10;23.00;;;;;;;-128.00;-1.00;-1.00;133932;1274;1001737;-80
2023/03/17 03:13:22;;;;;;;72.50;24.50;;;;;;;-128.00;-1.00;-1.00;133958;1275;1002561;-79
2023/03/17 03:16:25;;;;;;;81.00;25.40;;;;;;;-128.00;-1.00;-1.00;133915;1274;1002066;-79
2023/03/17 03:19:27;;;;;;;316.40;42.00;;;;;;;-128.00;-1.00;-1.00;133946;1274;1002506;-81
2023/03/17 03:22:30;;;;;;;303.00;41.20;;;;;;;-128.00;-1.00;-1.00;133923;1275;1002537;-82
2023/03/17 03:25:32;;;;;;;146.80;30.40;;;;;;;-128.00;-1.00;-1.00;133918;1275;1002499;-82
2023/03/17 03:28:35;;;;;;;82.20;24.70;;;;;;;-128.00;-1.00;-1.00;133884;1275;1001958;-82
2023/03/17 03:31:37;;;;;;;63.00;24.50;;;;;;;-128.00;-1.00;-1.00;133937;1274;1002379;-82
2023/03/17 03:34:40;;;;;;;130.90;29.40;;;;;;;-128.00;-1.00;-1.00;133941;1274;1002010;-84
2023/03/17 03:37:42;;;;;;;73.00;23.90;;;;;;;-128.00;-1.00;-1.00;133996;1274;1002553;-84
2023/03/17 03:40:47;;;;;;;58.30;22.80;;;;;;;-128.00;-1.00;-1.00;134015;1275;1002240;-84
2023/03/17 03:43:52;;;;;;;151.90;30.10;;;;;;;-128.00;-1.00;-1.00;134027;1274;1002437;-84
2023/03/17 03:46:54;;;;;;;68.10;23.10;;;;;;;-128.00;-1.00;-1.00;134036;1274;1002052;-83
2023/03/17 03:49:57;;;;;;;53.60;21.90;;;;;;;-128.00;-1.00;-1.00;134031;1275;1002787;-83
2023/03/17 03:52:59;;;;;;;50.50;23.70;;;;;;;-128.00;-1.00;-1.00;134006;1275;1002412;-83
2023/03/17 03:56:02;;;;;;;65.70;25.40;;;;;;;-128.00;-1.00;-1.00;134027;1274;1002149;-83
2023/03/17 03:59:04;;;;;;;168.80;28.60;;;;;;;-128.00;-1.00;-1.00;133970;1274;1002605;-83
2023/03/17 04:02:07;;;;;;;206.80;34.70;;;;;;;-128.00;-1.00;-1.00;133881;1275;1002491;-83
2023/03/17 04:05:10;;;;;;;109.30;26.40;;;;;;;-128.00;-1.00;-1.00;133867;1275;1002699;-83
2023/03/17 04:08:12;;;;;;;64.50;25.30;;;;;;;-128.00;-1.00;-1.00;133826;1274;1001977;-82
2023/03/17 04:11:15;;;;;;;79.40;28.00;;;;;;;-128.00;-1.00;-1.00;133855;1275;1002687;-83
2023/03/17 04:14:17;;;;;;;64.70;28.50;;;;;;;-128.00;-1.00;-1.00;133809;1275;1002186;-82
2023/03/17 04:17:20;;;;;;;69.00;29.40;;;;;;;-128.00;-1.00;-1.00;133825;1275;1002542;-83
2023/03/17 04:20:22;;;;;;;74.70;31.70;;;;;;;-128.00;-1.00;-1.00;133822;1274;1002295;-83
2023/03/17 04:23:25;;;;;;;78.70;31.90;;;;;;;-128.00;-1.00;-1.00;133830;1275;1002533;-82
2023/03/17 04:26:27;;;;;;;96.00;33.90;;;;;;;-128.00;-1.00;-1.00;133752;1275;1002563;-83
2023/03/17 04:29:32;;;;;;;89.40;33.30;;;;;;;-128.00;-1.00;-1.00;133814;1275;1002417;-83
2023/03/17 04:32:37;;;;;;;78.80;35.20;;;;;;;-128.00;-1.00;-1.00;133810;1275;1002336;-82
2023/03/17 04:35:39;;;;;;;77.90;33.90;;;;;;;-128.00;-1.00;-1.00;133792;1275;1002622;-82
2023/03/17 04:38:42;;;;;;;77.50;31.10;;;;;;;-128.00;-1.00;-1.00;133770;1275;1002232;-83
2023/03/17 04:41:45;;;;;;;78.40;32.00;;;;;;;-128.00;-1.00;-1.00;133779;1275;1002491;-82
2023/03/17 04:44:47;;;;;;;82.50;32.70;;;;;;;-128.00;-1.00;-1.00;133761;1275;1003042;-82
2023/03/17 04:47:49;;;;;;;79.90;34.10;;;;;;;-128.00;-1.00;-1.00;133801;1275;1002376;-82
2023/03/17 04:50:52;;;;;;;118.00;35.50;;;;;;;-128.00;-1.00;-1.00;133707;1275;1002282;-82
2023/03/17 04:53:54;;;;;;;79.30;35.30;;;;;;;-128.00;-1.00;-1.00;133754;1275;1002242;-81
2023/03/17 04:56:57;;;;;;;76.40;32.80;;;;;;;-128.00;-1.00;-1.00;133745;1274;1002064;-82
2023/03/17 04:59:59;;;;;;;246.30;41.40;;;;;;;-128.00;-1.00;-1.00;133774;1275;1002487;-82
2023/03/17 05:03:02;;;;;;;81.20;34.60;;;;;;;-128.00;-1.00;-1.00;133882;1275;1002562;-82
2023/03/17 05:06:04;;;;;;;93.00;34.60;;;;;;;-128.00;-1.00;-1.00;133869;1275;1002224;-81
2023/03/17 05:09:07;;;;;;;78.30;35.00;;;;;;;-128.00;-1.00;-1.00;133855;1275;1002330;-83
2023/03/17 05:12:09;;;;;;;81.70;34.00;;;;;;;-128.00;-1.00;-1.00;133845;1275;1002256;-82
2023/03/17 05:15:13;;;;;;;76.80;34.00;;;;;;;-128.00;-1.00;-1.00;133842;1275;1002662;-82
2023/03/17 05:18:15;;;;;;;91.90;35.90;;;;;;;-128.00;-1.00;-1.00;133851;1275;1002200;-83
2023/03/17 05:21:17;;;;;;;80.90;36.70;;;;;;;-128.00;-1.00;-1.00;133866;1275;1002100;-82
2023/03/17 05:24:20;;;;;;;79.60;35.00;;;;;;;-128.00;-1.00;-1.00;133860;1275;1002227;-82
2023/03/17 05:27:23;;;;;;;105.90;36.00;;;;;;;-128.00;-1.00;-1.00;133897;1275;1002139;-82
2023/03/17 05:30:25;;;;;;;77.80;34.00;;;;;;;-128.00;-1.00;-1.00;133910;1275;1002247;-82
2023/03/17 05:33:28;;;;;;;95.50;35.50;;;;;;;-128.00;-1.00;-1.00;133886;1275;1002267;-82
2023/03/17 05:36:30;;;;;;;79.50;35.60;;;;;;;-128.00;-1.00;-1.00;133854;1274;1002301;-82
2023/03/17 05:39:33;;;;;;;86.70;36.10;;;;;;;-128.00;-1.00;-1.00;133865;1274;1002859;-83
2023/03/17 05:42:35;;;;;;;100.00;37.70;;;;;;;-128.00;-1.00;-1.00;133856;1275;1002178;-82
2023/03/17 05:45:38;;;;;;;142.00;38.00;;;;;;;-128.00;-1.00;-1.00;133823;1274;1002368;-82
2023/03/17 05:48:40;;;;;;;77.40;35.10;;;;;;;-128.00;-1.00;-1.00;133836;1274;1002393;-82
2023/03/17 05:51:43;;;;;;;111.20;36.90;;;;;;;-128.00;-1.00;-1.00;133837;1274;1002733;-82
2023/03/17 05:54:47;;;;;;;72.70;33.40;;;;;;;-128.00;-1.00;-1.00;133843;1275;1002434;-82
2023/03/17 05:57:52;;;;;;;75.20;36.50;;;;;;;-128.00;-1.00;-1.00;133874;1275;1002699;-81
2023/03/17 06:00:55;;;;;;;70.20;32.60;;;;;;;-128.00;-1.00;-1.00;133854;1275;1002293;-80
2023/03/17 06:03:59;;;;;;;78.20;33.70;;;;;;;-128.00;-1.00;-1.00;133836;1275;1002047;-80
2023/03/17 06:07:02;;;;;;;76.20;34.20;;;;;;;-128.00;-1.00;-1.00;133873;1275;1002509;-77
2023/03/17 06:10:05;;;;;;;74.60;33.80;;;;;;;-128.00;-1.00;-1.00;133827;1275;1002156;-80
2023/03/17 06:13:08;;;;;;;78.60;34.90;;;;;;;-128.00;-1.00;-1.00;133856;1259;1003220;-80
2023/03/17 06:16:11;;;;;;;100.40;33.10;;;;;;;-128.00;-1.00;-1.00;133848;1275;1002369;-80
2023/03/17 06:19:13;;;;;;;93.00;34.10;;;;;;;-128.00;-1.00;-1.00;133862;1275;1002716;-79
2023/03/17 06:22:16;;;;;;;68.80;32.10;;;;;;;-128.00;-1.00;-1.00;133862;1275;1002443;-81
2023/03/17 06:25:18;;;;;;;81.30;33.70;;;;;;;-128.00;-1.00;-1.00;133842;1275;1002249;-81
2023/03/17 06:28:21;;;;;;;188.90;38.40;;;;;;;-128.00;-1.00;-1.00;133835;1275;1001945;-81
2023/03/17 06:31:23;;;;;;;238.90;40.50;;;;;;;-128.00;-1.00;-1.00;133862;1275;1002380;-81
2023/03/17 06:34:26;;;;;;;88.00;33.20;;;;;;;-128.00;-1.00;-1.00;133860;1275;1002463;-78
2023/03/17 06:37:29;;;;;;;79.60;32.20;;;;;;;-128.00;-1.00;-1.00;133845;1274;1002733;-79
2023/03/17 06:40:32;;;;;;;101.10;34.50;;;;;;;-128.00;-1.00;-1.00;133851;1275;1002585;-79
2023/03/17 06:43:35;;;;;;;155.00;36.80;;;;;;;-128.00;-1.00;-1.00;133853;1275;1002336;-81
2023/03/17 06:46:37;;;;;;;109.00;35.40;;;;;;;-128.00;-1.00;-1.00;133889;1275;1002542;-82
2023/03/17 06:49:40;;;;;;;67.40;32.10;;;;;;;-128.00;-1.00;-1.00;133885;1274;1002576;-79
2023/03/17 06:52:43;;;;;;;68.40;32.90;;;;;;;-128.00;-1.00;-1.00;133900;1275;1002667;-79
2023/03/17 06:55:45;;;;;;;67.20;33.40;;;;;;;-128.00;-1.00;-1.00;133858;1274;1002573;-78
2023/03/17 06:58:47;;;;;;;214.90;44.50;;;;;;;-128.00;-1.00;-1.00;133836;1275;1002543;-79
2023/03/17 07:01:50;;;;;;;86.40;34.60;;;;;;;-128.00;-1.00;-1.00;133851;1275;1002504;-80
2023/03/17 07:04:53;;;;;;;78.20;33.10;;;;;;;-128.00;-1.00;-1.00;133826;1275;1002245;-80
2023/03/17 07:07:55;;;;;;;79.70;32.80;;;;;;;-128.00;-1.00;-1.00;133815;1275;1002861;-80
2023/03/17 07:10:58;;;;;;;82.10;32.20;;;;;;;-128.00;-1.00;-1.00;133846;1275;1002570;-83
2023/03/17 07:14:04;;;;;;;63.90;30.20;;;;;;;-128.00;-1.00;-1.00;133697;1275;1001975;-83
2023/03/17 07:17:06;;;;;;;58.10;29.50;;;;;;;-128.00;-1.00;-1.00;133834;1274;1002440;-82
2023/03/17 07:20:10;;;;;;;57.80;28.70;;;;;;;-128.00;-1.00;-1.00;133903;1275;1002391;-81
2023/03/17 07:23:12;;;;;;;262.70;37.40;;;;;;;-128.00;-1.00;-1.00;133891;1275;1002554;-80
2023/03/17 07:26:15;;;;;;;132.00;33.00;;;;;;;-128.00;-1.00;-1.00;133890;1274;1002977;-80
2023/03/17 07:29:17;;;;;;;121.70;29.80;;;;;;;-128.00;-1.00;-1.00;133865;1275;1002137;-83
2023/03/17 07:32:20;;;;;;;114.80;30.30;;;;;;;-128.00;-1.00;-1.00;133870;1275;1001769;-81
2023/03/17 07:35:22;;;;;;;54.10;27.00;;;;;;;-128.00;-1.00;-1.00;133881;1275;1002443;-82
2023/03/17 07:38:25;;;;;;;88.90;30.90;;;;;;;-128.00;-1.00;-1.00;133831;1275;1001940;-79
2023/03/17 07:41:27;;;;;;;91.30;28.10;;;;;;;-128.00;-1.00;-1.00;133821;1274;1002287;-79
2023/03/17 07:44:32;;;;;;;64.90;25.40;;;;;;;-128.00;-1.00;-1.00;133837;1274;1002155;-80
2023/03/17 07:47:35;;;;;;;52.70;23.90;;;;;;;-128.00;-1.00;-1.00;133841;1274;1002145;-79
2023/03/17 07:50:37;;;;;;;43.30;24.00;;;;;;;-128.00;-1.00;-1.00;133843;1275;1003071;-79
2023/03/17 07:53:40;;;;;;;55.50;24.60;;;;;;;-128.00;-1.00;-1.00;133892;1274;1001868;-80
2023/03/17 07:56:43;;;;;;;43.00;22.80;;;;;;;-128.00;-1.00;-1.00;133837;1274;1001682;-78
2023/03/17 07:59:46;;;;;;;42.10;21.50;;;;;;;-128.00;-1.00;-1.00;133775;1275;1002570;-79
2023/03/17 08:02:49;;;;;;;43.40;20.00;;;;;;;-128.00;-1.00;-1.00;133709;1276;1002260;-79
2023/03/17 08:05:52;;;;;;;40.80;21.00;;;;;;;-128.00;-1.00;-1.00;133686;1276;1001996;-78
2023/03/17 08:08:54;;;;;;;171.80;27.70;;;;;;;-128.00;-1.00;-1.00;133665;1276;1003082;-78
2023/03/17 08:11:56;;;;;;;62.40;25.50;;;;;;;-128.00;-1.00;-1.00;133659;1276;1002353;-80
2023/03/17 08:14:59;;;;;;;56.20;21.90;;;;;;;-128.00;-1.00;-1.00;133668;1276;1002410;-78
2023/03/17 08:18:02;;;;;;;68.80;23.50;;;;;;;-128.00;-1.00;-1.00;133706;1276;1002717;-80
2023/03/17 08:21:08;;;;;;;59.30;22.70;;;;;;;-128.00;-1.00;-1.00;133697;1276;1002837;-80
2023/03/17 08:24:10;;;;;;;52.80;23.60;;;;;;;-128.00;-1.00;-1.00;133704;1276;1003003;-79
2023/03/17 08:27:13;;;;;;;60.70;24.30;;;;;;;-128.00;-1.00;-1.00;133710;1276;1002539;-80
2023/03/17 08:30:16;;;;;;;450.70;41.80;;;;;;;-128.00;-1.00;-1.00;133692;1276;1002360;-78
2023/03/17 08:33:18;;;;;;;40.20;20.50;;;;;;;-128.00;-1.00;-1.00;133648;1276;1002097;-80
2023/03/17 08:36:21;;;;;;;29.00;17.50;;;;;;;-128.00;-1.00;-1.00;133676;1276;1002472;-79
2023/03/17 08:39:23;;;;;;;38.00;20.10;;;;;;;-128.00;-1.00;-1.00;133774;1276;1002072;-79
2023/03/17 08:42:25;;;;;;;37.10;18.40;;;;;;;-128.00;-1.00;-1.00;133767;1276;1002089;-80
2023/03/17 08:45:28;;;;;;;31.30;16.00;;;;;;;-128.00;-1.00;-1.00;133750;1276;1002245;-81
2023/03/17 08:48:30;;;;;;;21.50;12.50;;;;;;;-128.00;-1.00;-1.00;133762;1276;1002401;-81
2023/03/17 08:51:33;;;;;;;43.10;12.70;;;;;;;-128.00;-1.00;-1.00;133731;1276;1002236;-80
2023/03/17 08:54:36;;;;;;;35.40;12.00;;;;;;;-128.00;-1.00;-1.00;133768;1276;1002062;-80
2023/03/17 08:57:38;;;;;;;50.50;11.50;;;;;;;-128.00;-1.00;-1.00;133724;1276;1002226;-80
2023/03/17 09:00:41;;;;;;;20.50;9.60;;;;;;;-128.00;-1.00;-1.00;133673;1276;1001870;-80
2023/03/17 09:03:44;;;;;;;50.20;10.70;;;;;;;-128.00;-1.00;-1.00;133646;1276;1002465;-80
2023/03/17 09:06:46;;;;;;;331.50;30.80;;;;;;;-128.00;-1.00;-1.00;133621;1276;1001911;-77
2023/03/17 09:09:49;;;;;;;52.80;10.60;;;;;;;-128.00;-1.00;-1.00;133672;1276;1002457;-81
2023/03/17 09:12:52;;;;;;;17.30;9.60;;;;;;;-128.00;-1.00;-1.00;133675;1276;1002028;-80
2023/03/17 09:15:54;;;;;;;15.50;9.40;;;;;;;-128.00;-1.00;-1.00;133641;1276;1002412;-80
2023/03/17 09:18:57;;;;;;;25.20;9.80;;;;;;;-128.00;-1.00;-1.00;133610;1276;1002317;-80
2023/03/17 09:22:01;;;;;;;66.20;11.70;;;;;;;-128.00;-1.00;-1.00;133593;1276;1002415;-80
2023/03/17 09:25:04;;;;;;;35.20;9.60;;;;;;;-128.00;-1.00;-1.00;133613;1276;1002401;-78
2023/03/17 09:28:07;;;;;;;16.20;8.60;;;;;;;-128.00;-1.00;-1.00;133617;1276;1002706;-80
2023/03/17 09:31:11;;;;;;;24.20;9.20;;;;;;;-128.00;-1.00;-1.00;133654;1276;1002500;-79
2023/03/17 09:34:13;;;;;;;20.00;8.20;;;;;;;-128.00;-1.00;-1.00;133725;1276;1002488;-80
2023/03/17 09:37:16;;;;;;;16.70;8.80;;;;;;;-128.00;-1.00;-1.00;133763;1276;1003385;-80
2023/03/17 09:40:18;;;;;;;21.90;10.30;;;;;;;-128.00;-1.00;-1.00;133765;1276;1002366;-80
2023/03/17 09:43:20;;;;;;;26.40;10.90;;;;;;;-128.00;-1.00;-1.00;133712;1276;1002327;-81
2023/03/17 09:46:23;;;;;;;44.00;10.90;;;;;;;-128.00;-1.00;-1.00;133834;1275;1002442;-80
2023/03/17 09:49:26;;;;;;;30.70;10.20;;;;;;;-128.00;-1.00;-1.00;133875;1274;1003397;-80
2023/03/17 09:52:28;;;;;;;44.60;12.50;;;;;;;-128.00;-1.00;-1.00;133886;1275;1002360;-80
2023/03/17 09:55:31;;;;;;;29.70;11.60;;;;;;;-128.00;-1.00;-1.00;133856;1275;1002247;-80
2023/03/17 09:58:33;;;;;;;40.10;11.20;;;;;;;-128.00;-1.00;-1.00;133833;1274;1002760;-80
2023/03/17 10:01:36;;;;;;;102.00;13.90;;;;;;;-128.00;-1.00;-1.00;133844;1274;1001757;-80
2023/03/17 10:04:41;;;;;;;23.40;10.50;;;;;;;-128.00;-1.00;-1.00;133760;1275;1002443;-79
2023/03/17 10:07:43;;;;;;;15.10;8.10;;;;;;;-128.00;-1.00;-1.00;133758;1275;1002400;-80
2023/03/17 10:10:47;;;;;;;417.50;21.80;;;;;;;-128.00;-1.00;-1.00;133794;1274;1002537;-80
2023/03/17 10:13:49;;;;;;;25.70;6.50;;;;;;;-128.00;-1.00;-1.00;133739;1274;1001717;-80
2023/03/17 10:16:52;;;;;;;22.30;6.00;;;;;;;-128.00;-1.00;-1.00;133741;1274;1002834;-79
2023/03/17 10:19:57;;;;;;;12.20;5.20;;;;;;;-128.00;-1.00;-1.00;133713;1274;1002477;-80
2023/03/17 10:23:00;;;;;;;104.40;11.00;;;;;;;-128.00;-1.00;-1.00;133719;1275;1002065;-80
2023/03/17 10:26:03;;;;;;;140.50;13.10;;;;;;;-128.00;-1.00;-1.00;133746;1274;1002213;-79
2023/03/17 10:29:06;;;;;;;14.60;6.30;;;;;;;-128.00;-1.00;-1.00;133683;1274;1002378;-80
2023/03/17 10:32:08;;;;;;;10.40;5.40;;;;;;;-128.00;-1.00;-1.00;133686;1275;1002077;-79
2023/03/17 10:35:11;;;;;;;15.10;6.90;;;;;;;-128.00;-1.00;-1.00;133665;1275;1002524;-80
2023/03/17 10:38:13;;;;;;;18.90;7.90;;;;;;;-128.00;-1.00;-1.00;133709;1275;1002196;-79
2023/03/17 10:41:16;;;;;;;17.10;6.80;;;;;;;-128.00;-1.00;-1.00;133725;1275;1002553;-82
2023/03/17 10:44:18;;;;;;;18.80;7.70;;;;;;;-128.00;-1.00;-1.00;133752;1275;1002434;-81
2023/03/17 10:47:21;;;;;;;23.30;8.00;;;;;;;-128.00;-1.00;-1.00;133779;1275;1001772;-80
2023/03/17 10:50:27;;;;;;;666.00;47.30;;;;;;;-128.00;-1.00;-1.00;133726;1275;1002083;-80
2023/03/17 10:53:31;;;;;;;48.40;8.90;;;;;;;-128.00;-1.00;-1.00;133713;1275;1002003;-80
2023/03/17 10:56:35;;;;;;;17.10;7.30;;;;;;;-128.00;-1.00;-1.00;133778;1275;1002857;-80
2023/03/17 10:59:39;;;;;;;182.60;15.90;;;;;;;-128.00;-1.00;-1.00;133752;1275;1003235;-80
2023/03/17 11:02:44;;;;;;;24.00;7.40;;;;;;;-128.00;-1.00;-1.00;133733;1274;1002451;-79
2023/03/17 11:05:48;;;;;;;19.80;7.20;;;;;;;-128.00;-1.00;-1.00;133737;1275;1002552;-79
2023/03/17 11:08:53;;;;;;;20.30;8.60;;;;;;;-128.00;-1.00;-1.00;133744;1275;1002391;-79
2023/03/17 11:11:57;;;;;;;80.60;10.30;;;;;;;-128.00;-1.00;-1.00;133749;1275;1002381;-81
2023/03/17 11:15:02;;;;;;;17.60;7.30;;;;;;;-128.00;-1.00;-1.00;133675;1275;1002477;-80
2023/03/17 11:18:06;;;;;;;18.40;6.90;;;;;;;-128.00;-1.00;-1.00;133746;1275;1002379;-80
2023/03/17 11:21:12;;;;;;;16.60;6.40;;;;;;;-128.00;-1.00;-1.00;133722;1275;1002299;-77
2023/03/17 11:24:16;;;;;;;44.70;8.10;;;;;;;-128.00;-1.00;-1.00;133716;1275;1002692;-80
2023/03/17 11:27:20;;;;;;;15.60;6.70;;;;;;;-128.00;-1.00;-1.00;133746;1275;1002412;-80
2023/03/17 11:30:26;;;;;;;17.90;7.40;;;;;;;-128.00;-1.00;-1.00;133712;1275;1002376;-80
2023/03/17 11:33:30;;;;;;;12.50;6.70;;;;;;;-128.00;-1.00;-1.00;133792;1275;1002542;-80
2023/03/17 11:36:36;;;;;;;13.90;7.70;;;;;;;-128.00;-1.00;-1.00;133773;1275;1002641;-80
2023/03/17 11:39:40;;;;;;;17.20;7.20;;;;;;;-128.00;-1.00;-1.00;133733;1275;1002456;-80
2023/03/17 11:42:45;;;;;;;11.60;7.40;;;;;;;-128.00;-1.00;-1.00;133743;1275;1002276;-79
2023/03/17 11:45:51;;;;;;;652.70;55.90;;;;;;;-128.00;-1.00;-1.00;133733;1275;1002437;-80
2023/03/17 11:48:55;;;;;;;160.60;12.50;;;;;;;-128.00;-1.00;-1.00;133751;1275;1002601;-79
2023/03/17 11:52:00;;;;;;;;;;;;;;;-128.00;-1.00;-1.00;133755;1275;1002408;-80
2023/03/17 11:55:04;;;;;;;17.90;7.40;;;;;;;-128.00;-1.00;-1.00;133816;1275;1001938;-80
2023/03/17 11:58:11;;;;;;;15.50;7.70;;;;;;;-128.00;-1.00;-1.00;133836;1275;1002947;-81
2023/03/17 12:01:14;;;;;;;82.00;11.70;;;;;;;-128.00;-1.00;-1.00;133505;1275;1002500;-78
2023/03/17 12:04:17;;;;;;;22.50;7.90;;;;;;;-128.00;-1.00;-1.00;133810;1275;1002484;-80
2023/03/17 12:07:20;;;;;;;54.70;9.30;;;;;;;-128.00;-1.00;-1.00;133787;1275;1002024;-81
2023/03/17 12:10:22;;;;;;;13.00;6.70;;;;;;;-128.00;-1.00;-1.00;133807;1274;1001605;-80
2023/03/17 12:13:25;;;;;;;25.80;7.20;;;;;;;-128.00;-1.00;-1.00;133717;1274;1002280;-80
2023/03/17 12:16:28;;;;;;;45.70;7.80;;;;;;;-128.00;-1.00;-1.00;133764;1274;1002421;-80
2023/03/17 12:19:31;;;;;;;22.00;6.50;;;;;;;-128.00;-1.00;-1.00;133763;1275;1002278;-80
2023/03/17 12:22:33;;;;;;;11.60;6.30;;;;;;;-128.00;-1.00;-1.00;133794;1274;1003214;-80
2023/03/17 12:25:35;;;;;;;514.70;33.70;;;;;;;-128.00;-1.00;-1.00;133828;1275;1002428;-80
2023/03/17 12:28:38;;;;;;;42.00;7.60;;;;;;;-128.00;-1.00;-1.00;133796;1274;1002679;-81
2023/03/17 12:31:43;;;;;;;14.50;6.00;;;;;;;-128.00;-1.00;-1.00;133796;1274;1002746;-80
2023/03/17 12:34:45;;;;;;;196.10;17.50;;;;;;;-128.00;-1.00;-1.00;133761;1274;1002126;-80
2023/03/17 12:37:48;;;;;;;34.30;6.80;;;;;;;-128.00;-1.00;-1.00;133793;1274;1002274;-79
2023/03/17 12:40:50;;;;;;;30.60;6.30;;;;;;;-128.00;-1.00;-1.00;133784;1274;1002447;-82
2023/03/17 12:43:53;;;;;;;26.00;5.60;;;;;;;-128.00;-1.00;-1.00;133759;1275;1002147;-81
2023/03/17 12:46:56;;;;;;;121.40;10.20;;;;;;;-128.00;-1.00;-1.00;133812;1274;1002284;-80
2023/03/17 12:50:01;;;;;;;35.30;6.60;;;;;;;-128.00;-1.00;-1.00;133782;1274;1002147;-81
2023/03/17 12:53:03;;;;;;;25.10;5.70;;;;;;;-128.00;-1.00;-1.00;133840;1274;1002817;-81
2023/03/17 12:56:06;;;;;;;13.50;4.60;;;;;;;-128.00;-1.00;-1.00;133802;1261;1002622;-80
2023/03/17 12:59:08;;;;;;;23.70;5.10;;;;;;;-128.00;-1.00;-1.00;133796;1274;1002557;-81
2023/03/17 13:02:11;;;;;;;35.30;6.70;;;;;;;-128.00;-1.00;-1.00;133821;1275;1003063;-82
2023/03/17 13:05:13;;;;;;;12.20;4.20;;;;;;;-128.00;-1.00;-1.00;133809;1274;1003048;-81
2023/03/17 13:08:15;;;;;;;60.20;7.10;;;;;;;-128.00;-1.00;-1.00;133745;1274;1002283;-83
2023/03/17 13:11:19;;;;;;;171.30;14.00;;;;;;;-128.00;-1.00;-1.00;133817;1274;1002342;-83
2023/03/17 13:14:22;;;;;;;32.40;5.70;;;;;;;-128.00;-1.00;-1.00;133763;1274;1002421;-81
2023/03/17 13:17:27;;;;;;;44.60;6.70;;;;;;;-128.00;-1.00;-1.00;133726;1274;1002497;-80
2023/03/17 13:20:29;;;;;;;22.20;4.80;;;;;;;-128.00;-1.00;-1.00;133719;1275;1002192;-81
2023/03/17 13:23:32;;;;;;;99.70;9.60;;;;;;;-128.00;-1.00;-1.00;133720;1275;1002923;-80
2023/03/17 13:26:34;;;;;;;9.30;4.80;;;;;;;-128.00;-1.00;-1.00;133681;1275;1002488;-80
2023/03/17 13:29:37;;;;;;;12.30;4.90;;;;;;;-128.00;-1.00;-1.00;133717;1274;1002121;-81
2023/03/17 13:32:39;;;;;;;24.50;5.00;;;;;;;-128.00;-1.00;-1.00;133667;1275;1002217;-81
2023/03/17 13:35:42;;;;;;;8.40;4.80;;;;;;;-128.00;-1.00;-1.00;133738;1275;1001867;-81
2023/03/17 13:38:44;;;;;;;9.20;5.30;;;;;;;-128.00;-1.00;-1.00;133745;1275;1002474;-80
2023/03/17 13:41:47;;;;;;;58.70;7.90;;;;;;;-128.00;-1.00;-1.00;133796;1275;1002557;-78